createdAt,value
2023-02-11T00:00:42.348Z,51.03
2023-02-11T00:03:09.326Z,46.42
2023-02-11T00:05:35.967Z,46.92
2023-02-11T00:08:02.523Z,48.95
2023-02-11T00:10:29.116Z,46.70
2023-02-11T00:12:55.956Z,47.70
2023-02-11T00:15:22.635Z,42.63
2023-02-11T00:17:49.180Z,44.03
2023-02-11T00:20:16.034Z,42.88
2023-02-11T00:22:42.586Z,41.88
2023-02-11T00:25:09.344Z,50.58
2023-02-11T00:27:37.190Z,48.92
2023-02-11T00:30:05.394Z,46.38
2023-02-11T00:32:32.081Z,45.92
2023-02-11T00:34:58.712Z,45.55
2023-02-11T00:37:25.303Z,43.53
2023-02-11T00:39:51.893Z,44.15
2023-02-11T00:42:18.590Z,44.78
2023-02-11T00:44:45.154Z,46.15
2023-02-11T00:47:11.768Z,43.58
2023-02-11T00:49:40.369Z,45.28
2023-02-11T00:52:07.254Z,49.65
2023-02-11T00:54:33.846Z,52.10
2023-02-11T00:57:00.450Z,51.75
2023-02-11T00:59:27.199Z,48.05
2023-02-11T01:01:53.870Z,57.28
2023-02-11T01:04:20.572Z,47.60
2023-02-11T01:06:47.265Z,45.72
2023-02-11T01:09:13.851Z,47.80
2023-02-11T01:11:40.425Z,47.40
2023-02-11T01:14:07.121Z,46.72
2023-02-11T01:16:33.872Z,44.65
2023-02-11T01:19:00.427Z,44.63
2023-02-11T01:21:27.041Z,47.83
2023-02-11T01:23:53.633Z,43.28
2023-02-11T01:26:20.173Z,42.67
2023-02-11T01:28:46.849Z,46.40
2023-02-11T01:31:13.822Z,45.90
2023-02-11T01:33:40.840Z,42.80
2023-02-11T01:36:08.105Z,47.97
2023-02-11T01:38:35.161Z,40.35
2023-02-11T01:41:05.205Z,42.33
2023-02-11T01:43:36.465Z,40.75
2023-02-11T01:46:31.383Z,42.15
2023-02-11T01:49:04.110Z,41.78
2023-02-11T01:51:48.245Z,45.72
2023-02-11T01:54:38.564Z,45.85
2023-02-11T01:57:22.162Z,41.25
2023-02-11T02:00:00.495Z,46.60
2023-02-11T02:02:31.422Z,38.13
2023-02-11T02:05:20.684Z,41.85
2023-02-11T02:08:12.666Z,39.80
2023-02-11T02:10:43.665Z,37.50
2023-02-11T02:13:10.963Z,38.53
2023-02-11T02:15:39.824Z,38.28
2023-02-11T02:18:33.726Z,40.05
2023-02-11T02:21:05.905Z,42.42
2023-02-11T02:23:50.604Z,44.92
2023-02-11T02:27:03.977Z,48.47
2023-02-11T02:29:45.703Z,44.30
2023-02-11T02:32:21.425Z,42.40
2023-02-11T02:34:58.108Z,41.63
2023-02-11T02:37:33.601Z,43.92
2023-02-11T02:40:04.648Z,45.38
2023-02-11T02:42:32.201Z,42.27
2023-02-11T02:44:58.909Z,46.17
2023-02-11T02:47:25.464Z,41.47
2023-02-11T02:49:52.022Z,39.88
2023-02-11T02:52:33.686Z,41.22
2023-02-11T02:55:09.724Z,40.33
2023-02-11T02:57:55.077Z,43.40
2023-02-11T03:00:49.432Z,38.00
2023-02-11T03:03:15.982Z,38.72
2023-02-11T03:06:04.476Z,42.28
2023-02-11T03:08:44.977Z,40.78
2023-02-11T03:11:15.305Z,44.60
2023-02-11T03:13:43.698Z,41.13
2023-02-11T03:16:25.559Z,41.80
2023-02-11T03:19:10.649Z,44.03
2023-02-11T03:21:40.549Z,43.25
2023-02-11T03:24:12.614Z,41.88
2023-02-11T03:26:45.818Z,51.38
2023-02-11T03:29:33.556Z,48.33
2023-02-11T03:32:03.226Z,41.50
2023-02-11T03:34:44.440Z,43.10
2023-02-11T03:37:25.723Z,44.83
2023-02-11T03:39:57.344Z,46.42
2023-02-11T03:42:30.144Z,46.08
2023-02-11T03:45:08.212Z,40.42
2023-02-11T03:47:38.252Z,48.35
2023-02-11T03:50:08.048Z,41.72
2023-02-11T03:52:38.188Z,45.15
2023-02-11T03:55:10.634Z,40.72
2023-02-11T03:57:37.984Z,48.38
2023-02-11T04:00:05.708Z,50.83
2023-02-11T04:02:35.173Z,47.10
2023-02-11T04:05:01.987Z,45.55
2023-02-11T04:07:28.897Z,50.45
2023-02-11T04:09:55.439Z,47.50
2023-02-11T04:12:22.384Z,49.80
2023-02-11T04:14:48.927Z,46.72
2023-02-11T04:17:15.478Z,48.70
2023-02-11T04:19:42.067Z,51.92
2023-02-11T04:22:09.014Z,51.75
2023-02-11T04:24:35.711Z,46.53
2023-02-11T04:27:02.469Z,49.58
2023-02-11T04:29:29.009Z,52.78
2023-02-11T04:31:55.828Z,46.95
2023-02-11T04:34:24.538Z,48.42
2023-02-11T04:36:51.270Z,45.55
2023-02-11T04:39:17.925Z,50.15
2023-02-11T04:41:44.505Z,49.15
2023-02-11T04:44:11.151Z,48.58
2023-02-11T04:46:37.710Z,48.33
2023-02-11T04:49:04.325Z,52.38
2023-02-11T04:51:31.059Z,46.80
2023-02-11T04:53:57.631Z,44.28
2023-02-11T04:56:24.356Z,48.15
2023-02-11T04:58:50.927Z,43.95
2023-02-11T05:01:17.673Z,45.03
2023-02-11T05:03:44.478Z,50.42
2023-02-11T05:06:11.722Z,46.22
2023-02-11T05:08:38.376Z,49.70
2023-02-11T05:11:05.499Z,50.50
2023-02-11T05:13:32.522Z,47.05
2023-02-11T05:15:59.403Z,47.35
2023-02-11T05:18:25.995Z,47.63
2023-02-11T05:20:52.511Z,47.50
2023-02-11T05:23:19.095Z,38.95
2023-02-11T05:25:45.625Z,43.50
2023-02-11T05:28:12.188Z,44.72
2023-02-11T05:30:38.896Z,45.03
2023-02-11T05:33:05.497Z,51.72
2023-02-11T05:35:32.216Z,49.30
2023-02-11T05:37:58.823Z,42.85
2023-02-11T05:40:25.346Z,43.10
2023-02-11T05:42:51.889Z,44.63
2023-02-11T05:45:18.624Z,51.50
2023-02-11T05:47:45.256Z,49.42
2023-02-11T05:50:11.821Z,48.25
2023-02-11T05:52:38.500Z,46.33
2023-02-11T05:55:05.803Z,47.67
2023-02-11T05:57:32.435Z,49.72
2023-02-11T05:59:59.030Z,46.67
2023-02-11T06:02:25.775Z,35.78
2023-02-11T06:04:52.353Z,32.05
2023-02-11T06:07:19.797Z,32.97
2023-02-11T06:09:46.378Z,37.58
2023-02-11T06:12:12.950Z,36.63
2023-02-11T06:14:39.532Z,38.70
2023-02-11T06:17:06.148Z,50.80
2023-02-11T06:19:32.771Z,42.83
2023-02-11T06:21:59.344Z,47.47
2023-02-11T06:24:48.113Z,51.58
2023-02-11T06:27:12.664Z,50.67
2023-02-11T06:29:39.278Z,51.60
2023-02-11T06:32:05.961Z,49.13
2023-02-11T06:34:32.703Z,48.30
2023-02-11T06:36:59.273Z,50.53
2023-02-11T06:39:25.801Z,47.80
2023-02-11T06:41:52.461Z,50.78
2023-02-11T06:44:19.047Z,50.45
2023-02-11T06:46:45.719Z,46.92
2023-02-11T06:49:12.435Z,50.42
2023-02-11T06:51:38.979Z,45.75
2023-02-11T06:54:06.447Z,43.72
2023-02-11T06:56:33.664Z,44.15
2023-02-11T06:59:00.414Z,41.80
2023-02-11T07:01:28.697Z,44.10
2023-02-11T07:03:55.976Z,41.53
2023-02-11T07:06:27.233Z,42.50
2023-02-11T07:08:55.120Z,44.47
2023-02-11T07:11:26.917Z,40.80
2023-02-11T07:13:56.499Z,45.38
2023-02-11T07:16:23.390Z,43.53
2023-02-11T07:18:50.030Z,49.72
2023-02-11T07:21:19.605Z,47.97
2023-02-11T07:23:47.170Z,43.80
2023-02-11T07:26:16.481Z,41.58
2023-02-11T07:28:44.081Z,44.92
2023-02-11T07:31:13.668Z,47.13
2023-02-11T07:33:40.953Z,47.50
2023-02-11T07:36:10.000Z,50.20
2023-02-11T07:38:38.247Z,48.85
2023-02-11T07:41:10.826Z,48.83
2023-02-11T07:43:38.335Z,52.47
2023-02-11T07:46:10.855Z,46.42
2023-02-11T07:48:37.700Z,45.92
2023-02-11T07:51:22.607Z,53.38
2023-02-11T07:53:49.384Z,55.28
2023-02-11T07:56:17.687Z,53.97
2023-02-11T07:58:44.842Z,50.42
2023-02-11T08:01:15.201Z,46.22
2023-02-11T08:03:44.581Z,51.28
2023-02-11T08:06:14.097Z,46.58
2023-02-11T08:08:40.826Z,51.05
2023-02-11T08:11:21.845Z,50.53
2023-02-11T08:13:48.753Z,53.67
2023-02-11T08:16:29.898Z,52.75
2023-02-11T08:18:58.817Z,49.40
2023-02-11T08:21:26.373Z,46.97
2023-02-11T08:23:53.752Z,47.67
2023-02-11T08:26:23.086Z,49.20
2023-02-11T08:28:51.590Z,49.85
2023-02-11T08:31:40.694Z,46.17
2023-02-11T08:34:07.599Z,57.05
2023-02-11T08:36:36.249Z,56.53
2023-02-11T08:39:22.493Z,55.40
2023-02-11T08:41:51.943Z,76.28
2023-02-11T08:44:19.924Z,73.45
2023-02-11T08:46:47.249Z,62.83
2023-02-11T08:49:14.674Z,74.43
2023-02-11T08:51:41.617Z,59.22
2023-02-11T08:54:09.924Z,58.70
2023-02-11T08:56:38.302Z,54.63
2023-02-11T08:59:06.137Z,48.42
2023-02-11T09:01:33.765Z,53.50
2023-02-11T09:04:01.240Z,45.30
2023-02-11T09:06:28.357Z,43.47
2023-02-11T09:08:56.900Z,42.28
2023-02-11T09:11:30.748Z,39.95
2023-02-11T09:13:58.263Z,38.78
2023-02-11T09:16:28.058Z,46.33
2023-02-11T09:18:57.081Z,39.13
2023-02-11T09:21:23.688Z,40.25
2023-02-11T09:23:50.603Z,40.42
2023-02-11T09:26:20.271Z,41.10
2023-02-11T09:28:48.033Z,37.38
2023-02-11T09:31:17.783Z,40.35
2023-02-11T09:33:49.820Z,41.03
2023-02-11T09:38:45.740Z,42.10
2023-02-11T09:41:24.360Z,38.95
2023-02-11T09:43:57.565Z,39.15
2023-02-11T09:46:26.071Z,42.70
2023-02-11T09:48:55.495Z,42.53
2023-02-11T09:51:53.502Z,50.85
2023-02-11T09:54:36.956Z,44.00
2023-02-11T09:57:06.230Z,36.72
2023-02-11T09:59:32.904Z,45.47
2023-02-11T10:02:12.164Z,44.13
2023-02-11T10:05:03.327Z,47.22
2023-02-11T10:07:40.740Z,50.10
2023-02-11T10:10:19.876Z,47.90
2023-02-11T10:12:52.521Z,54.05
2023-02-11T10:15:33.363Z,58.22
2023-02-11T10:18:00.211Z,52.50
2023-02-11T10:20:38.619Z,56.03
2023-02-11T10:23:27.223Z,52.38
2023-02-11T10:25:56.408Z,58.20
2023-02-11T10:28:36.912Z,53.90
2023-02-11T10:31:07.021Z,54.65
2023-02-11T10:33:45.883Z,49.35
2023-02-11T10:36:14.568Z,48.55
2023-02-11T10:38:41.125Z,49.80
2023-02-11T10:41:13.830Z,46.67
2023-02-11T10:43:42.628Z,45.22
2023-02-11T10:46:29.543Z,46.13
2023-02-11T10:48:56.197Z,37.78
2023-02-11T10:51:23.904Z,40.45
2023-02-11T10:54:08.172Z,41.78
2023-02-11T10:56:37.965Z,38.20
2023-02-11T10:59:18.135Z,36.33
2023-02-11T11:01:52.678Z,40.15
2023-02-11T11:04:37.396Z,38.83
2023-02-11T11:07:26.023Z,33.30
2023-02-11T11:10:02.585Z,40.53
2023-02-11T11:12:48.457Z,32.65
2023-02-11T11:15:22.731Z,28.77
2023-02-11T11:17:50.648Z,27.48
2023-02-11T11:20:27.600Z,32.95
2023-02-11T11:23:10.728Z,33.30
2023-02-11T11:25:41.540Z,32.05
2023-02-11T11:28:20.235Z,29.95
2023-02-11T11:30:47.028Z,34.28
2023-02-11T11:37:32.906Z,24.50
2023-02-11T11:40:07.731Z,26.45
2023-02-11T11:42:37.217Z,30.08
2023-02-11T11:45:25.839Z,24.65
2023-02-11T11:48:04.162Z,26.23
2023-02-11T11:50:56.106Z,23.95
2023-02-11T11:53:40.416Z,23.15
2023-02-11T11:56:16.147Z,28.67
2023-02-11T11:58:42.936Z,24.30
2023-02-11T12:01:39.582Z,20.27
2023-02-11T12:04:06.351Z,23.80
2023-02-11T12:07:05.295Z,28.00
2023-02-11T12:09:41.925Z,24.55
2023-02-11T12:12:20.944Z,27.55
2023-02-11T12:14:50.185Z,25.42
2023-02-11T12:17:34.785Z,28.15
2023-02-11T12:20:27.950Z,28.52
2023-02-11T12:23:27.422Z,30.77
2023-02-11T12:26:00.001Z,24.65
2023-02-11T12:28:43.979Z,22.38
2023-02-11T12:31:25.859Z,25.25
2023-02-11T12:33:52.437Z,25.50
2023-02-11T12:36:24.934Z,23.60
2023-02-11T12:38:57.527Z,24.95
2023-02-11T12:42:09.957Z,24.95
2023-02-11T12:45:14.259Z,24.50
2023-02-11T12:48:08.528Z,21.98
2023-02-11T12:50:41.418Z,22.42
2023-02-11T12:53:14.034Z,21.73
2023-02-11T12:55:45.076Z,19.58
2023-02-11T12:58:35.529Z,18.92
2023-02-11T13:01:16.245Z,18.00
2023-02-11T13:03:56.620Z,20.98
2023-02-11T13:06:31.298Z,19.17
2023-02-11T13:09:03.994Z,18.63
2023-02-11T13:11:39.491Z,20.35
2023-02-11T13:14:28.527Z,21.95
2023-02-11T13:16:57.105Z,16.90
2023-02-11T13:19:29.164Z,20.55
2023-02-11T13:24:48.088Z,17.73
2023-02-11T13:27:38.865Z,16.63
2023-02-11T13:30:29.131Z,17.85
2023-02-11T13:32:55.649Z,17.08
2023-02-11T13:35:40.193Z,22.27
2023-02-11T13:38:24.083Z,24.60
2023-02-11T13:41:22.333Z,24.02
2023-02-11T13:44:26.187Z,22.15
2023-02-11T13:47:05.022Z,20.90
2023-02-11T13:49:33.630Z,22.33
2023-02-11T13:52:03.356Z,24.65
2023-02-11T13:54:37.745Z,28.63
2023-02-11T13:57:26.963Z,22.52
2023-02-11T14:00:21.121Z,23.55
2023-02-11T14:03:32.274Z,23.17
2023-02-11T14:06:26.595Z,24.70
2023-02-11T14:09:08.737Z,27.15
2023-02-11T14:11:36.988Z,25.60
2023-02-11T14:14:18.887Z,26.52
2023-02-11T14:17:06.807Z,27.70
2023-02-11T14:19:38.071Z,20.65
2023-02-11T14:22:11.892Z,24.05
2023-02-11T14:24:38.423Z,23.08
2023-02-11T14:27:15.758Z,24.30
2023-02-11T14:29:51.270Z,24.05
2023-02-11T14:32:32.280Z,25.33
2023-02-11T14:35:01.611Z,24.02
2023-02-11T14:37:34.724Z,21.60
2023-02-11T14:40:22.692Z,20.25
2023-02-11T14:42:52.001Z,21.88
2023-02-11T14:45:23.101Z,18.33
2023-02-11T14:47:53.925Z,20.27
2023-02-11T14:50:33.888Z,17.35
2023-02-11T14:53:02.989Z,16.50
2023-02-11T14:55:37.565Z,21.17
2023-02-11T14:58:12.601Z,16.33
2023-02-11T15:00:51.649Z,18.25
2023-02-11T15:03:48.096Z,18.35
2023-02-11T15:06:28.183Z,15.93
2023-02-11T15:09:00.973Z,16.98
2023-02-11T15:11:31.912Z,16.75
2023-02-11T15:14:06.857Z,19.70
2023-02-11T15:16:34.583Z,21.55
2023-02-11T15:19:04.573Z,20.85
2023-02-11T15:21:34.366Z,21.33
2023-02-11T15:24:06.356Z,21.52
2023-02-11T15:29:00.225Z,24.63
2023-02-11T15:31:28.389Z,24.02
2023-02-11T15:33:55.347Z,24.83
2023-02-11T15:36:28.808Z,25.15
2023-02-11T15:39:17.370Z,23.52
2023-02-11T15:41:44.748Z,26.65
2023-02-11T15:44:28.491Z,28.00
2023-02-11T15:46:55.324Z,26.42
2023-02-11T15:49:23.597Z,26.05
2023-02-11T15:51:51.971Z,26.83
2023-02-11T15:54:26.753Z,25.65
2023-02-11T15:56:59.018Z,26.20
2023-02-11T15:59:38.456Z,32.45
2023-02-11T16:02:08.173Z,24.83
2023-02-11T16:04:36.173Z,29.58
2023-02-11T16:07:03.252Z,28.90
2023-02-11T16:09:34.456Z,28.60
2023-02-11T16:12:04.676Z,26.23
2023-02-11T16:14:34.822Z,33.90
2023-02-11T16:17:26.331Z,30.35
2023-02-11T16:19:54.001Z,30.07
2023-02-11T16:22:30.117Z,30.50
2023-02-11T16:25:00.031Z,32.08
2023-02-11T16:27:40.978Z,29.60
2023-02-11T16:30:27.378Z,34.78
2023-02-11T16:32:54.490Z,30.77
2023-02-11T16:35:21.146Z,33.97
2023-02-11T16:37:47.701Z,31.40
2023-02-11T16:40:14.445Z,28.67
2023-02-11T16:42:41.099Z,28.55
2023-02-11T16:45:08.949Z,29.23
2023-02-11T16:47:38.783Z,31.02
2023-02-11T16:50:09.777Z,28.38
2023-02-11T16:52:37.518Z,29.65
2023-02-11T16:55:06.119Z,28.17
2023-02-11T16:57:32.651Z,30.40
2023-02-11T16:59:59.935Z,30.08
2023-02-11T17:02:30.504Z,26.50
2023-02-11T17:05:00.798Z,31.67
2023-02-11T17:07:28.222Z,32.78
2023-02-11T17:09:55.210Z,30.42
2023-02-11T17:12:21.838Z,29.48
2023-02-11T17:14:48.398Z,33.88
2023-02-11T17:17:16.388Z,29.98
2023-02-11T17:19:43.516Z,32.70
2023-02-11T17:22:11.457Z,29.05
2023-02-11T17:24:38.070Z,28.25
2023-02-11T17:27:04.679Z,31.20
2023-02-11T17:29:31.288Z,30.98
2023-02-11T17:31:57.900Z,30.38
2023-02-11T17:34:24.578Z,33.55
2023-02-11T17:36:51.883Z,31.50
2023-02-11T17:39:21.004Z,32.45
2023-02-11T17:41:47.693Z,32.60
2023-02-11T17:44:15.528Z,34.28
2023-02-11T17:46:42.186Z,29.60
2023-02-11T17:49:10.139Z,29.20
2023-02-11T17:51:38.672Z,26.00
2023-02-11T17:54:08.292Z,26.83
2023-02-11T17:56:36.633Z,28.50
2023-02-11T17:59:06.466Z,25.85
2023-02-11T18:01:34.084Z,26.83
2023-02-11T18:04:01.505Z,26.27
2023-02-11T18:06:29.145Z,33.05
2023-02-11T18:08:59.710Z,28.50
2023-02-11T18:11:27.985Z,33.28
2023-02-11T18:13:54.670Z,30.10
2023-02-11T18:16:23.195Z,28.83
2023-02-11T18:18:50.566Z,30.35
2023-02-11T18:21:19.895Z,28.73
2023-02-11T18:23:46.617Z,26.60
2023-02-11T18:26:15.114Z,30.60
2023-02-11T18:28:45.255Z,30.63
2023-02-11T18:31:14.094Z,33.42
2023-02-11T18:33:41.870Z,29.00
2023-02-11T18:36:11.465Z,31.38
2023-02-11T18:38:38.573Z,31.75
2023-02-11T18:41:07.235Z,30.52
2023-02-11T18:43:34.556Z,31.95
2023-02-11T18:46:02.958Z,30.02
2023-02-11T18:48:29.583Z,32.30
2023-02-11T18:50:56.233Z,30.65
2023-02-11T18:53:23.652Z,33.95
2023-02-11T18:55:51.261Z,36.10
2023-02-11T18:58:18.202Z,40.83
2023-02-11T19:00:47.329Z,32.15
2023-02-11T19:03:14.141Z,35.83
2023-02-11T19:05:48.906Z,39.03
2023-02-11T19:08:17.070Z,36.20
2023-02-11T19:10:48.019Z,37.35
2023-02-11T19:13:14.829Z,41.22
2023-02-11T19:15:42.619Z,43.42
2023-02-11T19:18:09.542Z,46.17
2023-02-11T19:20:39.820Z,43.85
2023-02-11T19:23:06.479Z,38.60
2023-02-11T19:25:33.844Z,39.47
2023-02-11T19:28:00.530Z,40.72
2023-02-11T19:30:27.486Z,41.83
2023-02-11T19:32:57.095Z,39.67
2023-02-11T19:35:24.835Z,39.60
2023-02-11T19:37:51.451Z,45.58
2023-02-11T19:40:18.447Z,39.97
2023-02-11T19:42:44.994Z,43.22
2023-02-11T19:45:11.898Z,47.70
2023-02-11T19:47:38.772Z,43.33
2023-02-11T19:50:06.140Z,41.33
2023-02-11T19:52:32.766Z,43.22
2023-02-11T19:55:00.216Z,37.15
2023-02-11T19:57:26.816Z,40.97
2023-02-11T19:59:55.037Z,45.00
2023-02-11T20:02:21.835Z,44.35
2023-02-11T20:04:48.654Z,50.22
2023-02-11T20:07:15.188Z,47.50
2023-02-11T20:09:42.668Z,47.20
2023-02-11T20:12:09.854Z,46.95
2023-02-11T20:14:36.514Z,45.88
2023-02-11T20:17:03.125Z,46.72
2023-02-11T20:19:30.768Z,47.25
2023-02-11T20:21:57.570Z,44.35
2023-02-11T20:24:25.356Z,52.70
2023-02-11T20:26:55.528Z,50.80
2023-02-11T20:29:23.654Z,53.65
2023-02-11T20:31:50.811Z,57.47
2023-02-11T20:34:18.276Z,48.88
2023-02-11T20:36:51.796Z,54.38
2023-02-11T20:39:18.922Z,49.35
2023-02-11T20:41:46.335Z,51.38
2023-02-11T20:44:13.938Z,53.13
2023-02-11T20:46:47.938Z,48.63
2023-02-11T20:49:17.170Z,47.03
2023-02-11T20:51:44.249Z,49.80
2023-02-11T20:54:17.216Z,49.70
2023-02-11T20:56:47.461Z,56.03
2023-02-11T20:59:16.407Z,53.95
2023-02-11T21:01:46.577Z,51.47
2023-02-11T21:04:19.073Z,56.10
2023-02-11T21:06:47.977Z,47.83
2023-02-11T21:09:19.673Z,49.95
2023-02-11T21:11:47.010Z,47.97
2023-02-11T21:14:13.720Z,56.67
2023-02-11T21:16:40.979Z,44.53
2023-02-11T21:19:07.582Z,46.50
2023-02-11T21:21:38.701Z,43.90
2023-02-11T21:24:07.139Z,48.33
2023-02-11T21:26:35.422Z,46.60
2023-02-11T21:29:03.794Z,51.53
2023-02-11T21:31:32.812Z,44.70
2023-02-11T21:34:00.061Z,43.15
2023-02-11T21:36:28.705Z,44.63
2023-02-11T21:38:55.735Z,42.55
2023-02-11T21:41:22.715Z,45.85
2023-02-11T21:43:50.279Z,47.97
2023-02-11T21:46:18.140Z,41.70
2023-02-11T21:48:44.769Z,46.28
2023-02-11T21:51:18.037Z,52.78
2023-02-11T21:53:44.642Z,54.03
2023-02-11T21:56:16.901Z,54.28
2023-02-11T21:58:44.539Z,53.85
2023-02-11T22:01:22.676Z,52.45
2023-02-11T22:03:49.748Z,49.95
2023-02-11T22:06:22.442Z,52.30
2023-02-11T22:08:50.336Z,49.30
2023-02-11T22:11:17.700Z,51.35
2023-02-11T22:13:45.120Z,53.65
2023-02-11T22:16:14.830Z,48.63
2023-02-11T22:18:42.781Z,51.25
2023-02-11T22:21:12.639Z,46.75
2023-02-11T22:23:39.908Z,49.38
2023-02-11T22:26:09.990Z,50.92
2023-02-11T22:28:39.015Z,47.78
2023-02-11T22:31:05.721Z,49.47
2023-02-11T22:33:32.689Z,48.13
2023-02-11T22:36:06.126Z,52.85
2023-02-11T22:38:33.878Z,49.20
2023-02-11T22:41:06.337Z,52.88
2023-02-11T22:43:32.864Z,53.55
2023-02-11T22:46:03.536Z,49.63
2023-02-11T22:48:30.163Z,54.90
2023-02-11T22:50:56.895Z,64.78
2023-02-11T22:53:25.537Z,53.90
2023-02-11T22:55:52.502Z,52.35
2023-02-11T22:58:19.210Z,54.65
2023-02-11T23:00:45.778Z,53.35
2023-02-11T23:03:12.895Z,52.63
2023-02-11T23:05:42.574Z,51.35
2023-02-11T23:08:10.992Z,48.85
2023-02-11T23:10:39.706Z,47.28
2023-02-11T23:13:07.574Z,49.10
2023-02-11T23:15:34.361Z,53.05
2023-02-11T23:18:01.189Z,49.92
2023-02-11T23:20:27.828Z,52.20
2023-02-11T23:22:54.386Z,60.75
2023-02-11T23:25:21.186Z,64.13
2023-02-11T23:27:47.865Z,66.80
2023-02-11T23:30:14.727Z,73.03
2023-02-11T23:32:41.358Z,60.75
2023-02-11T23:35:08.313Z,62.13
2023-02-11T23:37:34.887Z,60.63
2023-02-11T23:40:01.459Z,53.70
2023-02-11T23:42:29.182Z,59.83
2023-02-11T23:44:55.687Z,59.08
2023-02-11T23:47:22.206Z,63.38
2023-02-11T23:49:48.776Z,51.92
2023-02-11T23:52:15.375Z,57.70
2023-02-11T23:54:43.371Z,57.45
2023-02-11T23:57:09.998Z,58.83
2023-02-11T23:59:36.626Z,52.65
